sensor_id;sensor_type;location;lat;lon;timestamp;temperature;humidity
28244;DHT22;15510;52.512;13.300;2023-05-17T00:02:07;10.50;99.90
28244;DHT22;15510;52.512;13.300;2023-05-17T00:04:33;10.50;99.90
28244;DHT22;15510;52.512;13.300;2023-05-17T00:06:59;10.50;99.90
28244;DHT22;15510;52.512;13.300;2023-05-17T00:09:28;10.60;99.90
28244;DHT22;15510;52.512;13.300;2023-05-17T00:11:54;10.70;99.90
28244;DHT22;15510;52.512;13.300;2023-05-17T00:14:19;10.70;99.90
28244;DHT22;15510;52.512;13.300;2023-05-17T00:16:45;10.60;99.90
28244;DHT22;15510;52.512;13.300;2023-05-17T00:19:11;10.50;99.90
28244;DHT22;15510;52.512;13.300;2023-05-17T00:21:42;10.40;99.90
28244;DHT22;15510;52.512;13.300;2023-05-17T00:24:11;10.30;99.90
28244;DHT22;15510;52.512;13.300;2023-05-17T00:26:37;10.40;99.90
28244;DHT22;15510;52.512;13.300;2023-05-17T00:29:03;10.40;99.90
28244;DHT22;15510;52.512;13.300;2023-05-17T00:31:29;10.30;99.90
28244;DHT22;15510;52.512;13.300;2023-05-17T00:33:54;10.30;99.90
28244;DHT22;15510;52.512;13.300;2023-05-17T00:36:20;10.30;99.90
28244;DHT22;15510;52.512;13.300;2023-05-17T00:38:46;10.10;99.90
28244;DHT22;15510;52.512;13.300;2023-05-17T00:41:12;10.00;99.90
28244;DHT22;15510;52.512;13.300;2023-05-17T00:43:38;10.00;99.90
28244;DHT22;15510;52.512;13.300;2023-05-17T00:46:04;9.90;99.90
28244;DHT22;15510;52.512;13.300;2023-05-17T00:48:30;9.90;99.90
28244;DHT22;15510;52.512;13.300;2023-05-17T00:50:57;9.90;99.90
28244;DHT22;15510;52.512;13.300;2023-05-17T00:53:24;9.80;99.90
28244;DHT22;15510;52.512;13.300;2023-05-17T00:55:50;9.70;99.90
28244;DHT22;15510;52.512;13.300;2023-05-17T00:58:16;9.60;99.90
28244;DHT22;15510;52.512;13.300;2023-05-17T01:00:42;9.60;99.90
28244;DHT22;15510;52.512;13.300;2023-05-17T01:03:10;9.50;99.90
28244;DHT22;15510;52.512;13.300;2023-05-17T01:05:36;9.50;99.90
28244;DHT22;15510;52.512;13.300;2023-05-17T01:08:02;9.40;99.90
28244;DHT22;15510;52.512;13.300;2023-05-17T01:16:12;9.30;99.90
28244;DHT22;15510;52.512;13.300;2023-05-17T01:18:47;9.30;99.90
28244;DHT22;15510;52.512;13.300;2023-05-17T01:21:46;9.30;99.90
28244;DHT22;15510;52.512;13.300;2023-05-17T01:24:48;9.20;99.90
28244;DHT22;15510;52.512;13.300;2023-05-17T01:27:18;9.30;99.90
28244;DHT22;15510;52.512;13.300;2023-05-17T01:29:45;9.30;99.90
28244;DHT22;15510;52.512;13.300;2023-05-17T01:32:12;9.40;99.90
28244;DHT22;15510;52.512;13.300;2023-05-17T01:34:40;9.40;99.90
28244;DHT22;15510;52.512;13.300;2023-05-17T01:37:09;9.30;99.90
28244;DHT22;15510;52.512;13.300;2023-05-17T01:39:35;9.40;99.90
28244;DHT22;15510;52.512;13.300;2023-05-17T01:42:28;9.30;99.90
28244;DHT22;15510;52.512;13.300;2023-05-17T01:50:09;9.20;99.90
28244;DHT22;15510;52.512;13.300;2023-05-17T01:52:52;9.20;99.90
28244;DHT22;15510;52.512;13.300;2023-05-17T01:57:53;9.10;99.90
28244;DHT22;15510;52.512;13.300;2023-05-17T02:00:22;9.00;99.90
28244;DHT22;15510;52.512;13.300;2023-05-17T02:02:49;9.00;99.90
28244;DHT22;15510;52.512;13.300;2023-05-17T02:05:15;9.00;99.90
28244;DHT22;15510;52.512;13.300;2023-05-17T02:07:46;9.00;99.90
28244;DHT22;15510;52.512;13.300;2023-05-17T02:10:12;9.00;99.90
28244;DHT22;15510;52.512;13.300;2023-05-17T02:12:41;9.10;99.90
28244;DHT22;15510;52.512;13.300;2023-05-17T02:15:08;9.10;99.90
28244;DHT22;15510;52.512;13.300;2023-05-17T02:17:40;9.20;99.90
28244;DHT22;15510;52.512;13.300;2023-05-17T02:20:08;9.20;99.90
28244;DHT22;15510;52.512;13.300;2023-05-17T02:22:37;9.20;99.90
28244;DHT22;15510;52.512;13.300;2023-05-17T02:25:04;9.20;99.90
28244;DHT22;15510;52.512;13.300;2023-05-17T02:27:31;9.30;99.90
28244;DHT22;15510;52.512;13.300;2023-05-17T02:30:01;9.30;99.90
28244;DHT22;15510;52.512;13.300;2023-05-17T02:32:28;9.40;99.90
28244;DHT22;15510;52.512;13.300;2023-05-17T02:34:57;9.40;99.90
28244;DHT22;15510;52.512;13.300;2023-05-17T02:37:25;9.40;99.90
28244;DHT22;15510;52.512;13.300;2023-05-17T02:39:51;9.40;99.90
28244;DHT22;15510;52.512;13.300;2023-05-17T02:42:17;9.40;99.90
28244;DHT22;15510;52.512;13.300;2023-05-17T02:44:43;9.40;99.90
28244;DHT22;15510;52.512;13.300;2023-05-17T02:47:11;9.50;99.90
28244;DHT22;15510;52.512;13.300;2023-05-17T02:49:37;9.50;99.90
28244;DHT22;15510;52.512;13.300;2023-05-17T02:52:03;9.50;99.90
28244;DHT22;15510;52.512;13.300;2023-05-17T02:54:29;9.60;99.90
28244;DHT22;15510;52.512;13.300;2023-05-17T02:56:55;9.60;99.90
28244;DHT22;15510;52.512;13.300;2023-05-17T02:59:21;9.60;99.90
28244;DHT22;15510;52.512;13.300;2023-05-17T03:01:47;9.60;99.90
28244;DHT22;15510;52.512;13.300;2023-05-17T03:04:15;9.60;99.90
28244;DHT22;15510;52.512;13.300;2023-05-17T03:06:41;9.60;99.90
28244;DHT22;15510;52.512;13.300;2023-05-17T03:09:07;9.80;99.90
28244;DHT22;15510;52.512;13.300;2023-05-17T03:11:33;9.80;99.90
28244;DHT22;15510;52.512;13.300;2023-05-17T03:14:05;10.00;99.90
28244;DHT22;15510;52.512;13.300;2023-05-17T03:16:31;10.00;99.90
28244;DHT22;15510;52.512;13.300;2023-05-17T03:19:00;9.90;99.90
28244;DHT22;15510;52.512;13.300;2023-05-17T03:21:26;10.00;99.90
28244;DHT22;15510;52.512;13.300;2023-05-17T03:23:56;10.10;99.90
28244;DHT22;15510;52.512;13.300;2023-05-17T03:26:25;10.20;99.90
28244;DHT22;15510;52.512;13.300;2023-05-17T03:28:52;10.30;99.90
28244;DHT22;15510;52.512;13.300;2023-05-17T03:31:21;10.30;99.90
28244;DHT22;15510;52.512;13.300;2023-05-17T03:33:53;10.20;99.90
28244;DHT22;15510;52.512;13.300;2023-05-17T03:36:28;10.20;99.90
28244;DHT22;15510;52.512;13.300;2023-05-17T03:38:57;10.20;99.90
28244;DHT22;15510;52.512;13.300;2023-05-17T03:41:27;10.30;99.90
28244;DHT22;15510;52.512;13.300;2023-05-17T03:43:59;10.20;99.90
28244;DHT22;15510;52.512;13.300;2023-05-17T03:46:36;10.10;99.90
28244;DHT22;15510;52.512;13.300;2023-05-17T03:49:04;10.10;99.90
28244;DHT22;15510;52.512;13.300;2023-05-17T03:51:32;9.90;99.90
28244;DHT22;15510;52.512;13.300;2023-05-17T03:54:02;9.80;99.90
28244;DHT22;15510;52.512;13.300;2023-05-17T03:56:32;9.70;99.90
28244;DHT22;15510;52.512;13.300;2023-05-17T03:59:04;9.70;99.90
28244;DHT22;15510;52.512;13.300;2023-05-17T04:01:33;9.60;99.90
28244;DHT22;15510;52.512;13.300;2023-05-17T04:03:58;9.50;99.90
28244;DHT22;15510;52.512;13.300;2023-05-17T04:06:25;9.60;99.90
28244;DHT22;15510;52.512;13.300;2023-05-17T04:08:52;9.60;99.90
28244;DHT22;15510;52.512;13.300;2023-05-17T04:11:20;9.60;99.90
28244;DHT22;15510;52.512;13.300;2023-05-17T04:13:51;9.60;99.90
28244;DHT22;15510;52.512;13.300;2023-05-17T04:16:21;9.60;99.90
28244;DHT22;15510;52.512;13.300;2023-05-17T04:18:47;9.70;99.90
28244;DHT22;15510;52.512;13.300;2023-05-17T04:21:18;9.60;99.90
28244;DHT22;15510;52.512;13.300;2023-05-17T04:23:44;9.70;99.90
28244;DHT22;15510;52.512;13.300;2023-05-17T04:26:13;9.80;99.90
28244;DHT22;15510;52.512;13.300;2023-05-17T04:28:39;9.80;99.90
28244;DHT22;15510;52.512;13.300;2023-05-17T04:31:09;9.70;99.90
28244;DHT22;15510;52.512;13.300;2023-05-17T04:33:36;9.80;99.90
28244;DHT22;15510;52.512;13.300;2023-05-17T04:36:03;9.80;99.90
28244;DHT22;15510;52.512;13.300;2023-05-17T04:38:30;9.90;99.90
28244;DHT22;15510;52.512;13.300;2023-05-17T04:41:03;10.00;99.90
28244;DHT22;15510;52.512;13.300;2023-05-17T04:43:33;10.00;99.90
28244;DHT22;15510;52.512;13.300;2023-05-17T04:46:00;10.10;99.90
28244;DHT22;15510;52.512;13.300;2023-05-17T04:48:30;10.10;99.90
28244;DHT22;15510;52.512;13.300;2023-05-17T04:51:00;10.10;99.90
28244;DHT22;15510;52.512;13.300;2023-05-17T04:53:34;10.10;99.90
28244;DHT22;15510;52.512;13.300;2023-05-17T04:56:06;10.10;99.90
28244;DHT22;15510;52.512;13.300;2023-05-17T04:58:32;10.00;99.90
28244;DHT22;15510;52.512;13.300;2023-05-17T05:01:00;10.10;99.90
28244;DHT22;15510;52.512;13.300;2023-05-17T05:03:26;10.00;99.90
28244;DHT22;15510;52.512;13.300;2023-05-17T05:05:53;10.00;99.90
28244;DHT22;15510;52.512;13.300;2023-05-17T05:08:19;10.00;99.90
28244;DHT22;15510;52.512;13.300;2023-05-17T05:10:46;10.10;99.90
28244;DHT22;15510;52.512;13.300;2023-05-17T05:13:13;10.10;99.90
28244;DHT22;15510;52.512;13.300;2023-05-17T05:15:40;10.10;99.90
28244;DHT22;15510;52.512;13.300;2023-05-17T05:18:06;10.20;99.90
28244;DHT22;15510;52.512;13.300;2023-05-17T05:20:32;10.20;99.90
28244;DHT22;15510;52.512;13.300;2023-05-17T05:22:59;10.40;99.90
28244;DHT22;15510;52.512;13.300;2023-05-17T05:25:28;10.40;99.90
28244;DHT22;15510;52.512;13.300;2023-05-17T05:27:54;10.30;99.90
28244;DHT22;15510;52.512;13.300;2023-05-17T05:30:20;10.40;99.90
28244;DHT22;15510;52.512;13.300;2023-05-17T05:32:49;10.40;99.90
28244;DHT22;15510;52.512;13.300;2023-05-17T05:35:16;10.40;99.90
28244;DHT22;15510;52.512;13.300;2023-05-17T05:37:42;10.60;99.90
28244;DHT22;15510;52.512;13.300;2023-05-17T05:40:17;10.70;99.90
28244;DHT22;15510;52.512;13.300;2023-05-17T05:42:43;10.60;99.90
28244;DHT22;15510;52.512;13.300;2023-05-17T05:45:09;10.60;99.90
28244;DHT22;15510;52.512;13.300;2023-05-17T05:47:35;10.60;99.90
28244;DHT22;15510;52.512;13.300;2023-05-17T05:50:02;10.70;99.90
28244;DHT22;15510;52.512;13.300;2023-05-17T05:52:29;10.70;99.90
28244;DHT22;15510;52.512;13.300;2023-05-17T05:54:55;10.90;99.90
28244;DHT22;15510;52.512;13.300;2023-05-17T05:57:26;11.10;99.90
28244;DHT22;15510;52.512;13.300;2023-05-17T05:59:52;11.30;99.90
28244;DHT22;15510;52.512;13.300;2023-05-17T06:02:18;11.50;99.90
28244;DHT22;15510;52.512;13.300;2023-05-17T06:04:46;11.50;99.90
28244;DHT22;15510;52.512;13.300;2023-05-17T06:07:14;11.50;99.90
28244;DHT22;15510;52.512;13.300;2023-05-17T06:09:41;11.50;99.90
28244;DHT22;15510;52.512;13.300;2023-05-17T06:12:07;11.50;99.90
28244;DHT22;15510;52.512;13.300;2023-05-17T06:14:33;11.50;99.90
28244;DHT22;15510;52.512;13.300;2023-05-17T06:17:01;11.50;99.90
28244;DHT22;15510;52.512;13.300;2023-05-17T06:19:27;11.50;99.90
28244;DHT22;15510;52.512;13.300;2023-05-17T06:21:53;11.50;99.90
28244;DHT22;15510;52.512;13.300;2023-05-17T06:24:19;11.50;99.90
28244;DHT22;15510;52.512;13.300;2023-05-17T06:26:45;11.60;99.90
28244;DHT22;15510;52.512;13.300;2023-05-17T06:29:14;11.60;99.90
28244;DHT22;15510;52.512;13.300;2023-05-17T06:31:42;11.60;99.90
28244;DHT22;15510;52.512;13.300;2023-05-17T06:34:08;11.70;99.90
28244;DHT22;15510;52.512;13.300;2023-05-17T06:36:37;11.90;99.90
28244;DHT22;15510;52.512;13.300;2023-05-17T06:39:05;12.00;99.90
28244;DHT22;15510;52.512;13.300;2023-05-17T06:41:39;12.10;99.90
28244;DHT22;15510;52.512;13.300;2023-05-17T06:44:13;12.20;99.90
28244;DHT22;15510;52.512;13.300;2023-05-17T06:46:39;12.20;99.90
28244;DHT22;15510;52.512;13.300;2023-05-17T06:49:04;12.30;99.90
28244;DHT22;15510;52.512;13.300;2023-05-17T06:51:30;12.40;99.90
28244;DHT22;15510;52.512;13.300;2023-05-17T06:54:14;12.50;99.90
28244;DHT22;15510;52.512;13.300;2023-05-17T06:56:46;12.80;99.90
28244;DHT22;15510;52.512;13.300;2023-05-17T06:59:18;13.10;99.90
28244;DHT22;15510;52.512;13.300;2023-05-17T07:01:50;13.20;99.90
28244;DHT22;15510;52.512;13.300;2023-05-17T07:04:31;13.40;99.90
28244;DHT22;15510;52.512;13.300;2023-05-17T07:06:57;13.40;99.90
28244;DHT22;15510;52.512;13.300;2023-05-17T07:09:23;13.10;99.90
28244;DHT22;15510;52.512;13.300;2023-05-17T07:11:49;12.70;99.90
28244;DHT22;15510;52.512;13.300;2023-05-17T07:14:18;12.30;99.90
28244;DHT22;15510;52.512;13.300;2023-05-17T07:16:44;12.10;99.90
28244;DHT22;15510;52.512;13.300;2023-05-17T07:19:14;11.90;99.90
28244;DHT22;15510;52.512;13.300;2023-05-17T07:24:52;11.90;99.90
28244;DHT22;15510;52.512;13.300;2023-05-17T07:27:18;12.00;99.90
28244;DHT22;15510;52.512;13.300;2023-05-17T07:29:43;12.20;99.90
28244;DHT22;15510;52.512;13.300;2023-05-17T07:32:09;12.20;99.90
28244;DHT22;15510;52.512;13.300;2023-05-17T07:34:35;12.20;99.90
28244;DHT22;15510;52.512;13.300;2023-05-17T07:37:01;12.20;99.90
28244;DHT22;15510;52.512;13.300;2023-05-17T07:39:27;12.50;99.90
28244;DHT22;15510;52.512;13.300;2023-05-17T07:41:53;12.70;99.90
28244;DHT22;15510;52.512;13.300;2023-05-17T07:44:18;12.70;99.90
28244;DHT22;15510;52.512;13.300;2023-05-17T07:46:46;12.60;99.90
28244;DHT22;15510;52.512;13.300;2023-05-17T07:49:13;12.70;99.90
28244;DHT22;15510;52.512;13.300;2023-05-17T07:51:39;12.70;99.90
28244;DHT22;15510;52.512;13.300;2023-05-17T07:54:05;12.60;99.90
28244;DHT22;15510;52.512;13.300;2023-05-17T07:56:31;12.70;99.90
28244;DHT22;15510;52.512;13.300;2023-05-17T07:58:58;12.70;99.90
28244;DHT22;15510;52.512;13.300;2023-05-17T08:01:25;12.60;99.90
28244;DHT22;15510;52.512;13.300;2023-05-17T08:03:51;12.60;99.90
28244;DHT22;15510;52.512;13.300;2023-05-17T08:06:17;12.60;99.90
28244;DHT22;15510;52.512;13.300;2023-05-17T08:08:46;12.60;99.90
28244;DHT22;15510;52.512;13.300;2023-05-17T08:11:12;12.50;99.90
28244;DHT22;15510;52.512;13.300;2023-05-17T08:13:38;12.60;99.90
28244;DHT22;15510;52.512;13.300;2023-05-17T08:16:04;12.60;99.90
28244;DHT22;15510;52.512;13.300;2023-05-17T08:18:33;12.60;99.90
28244;DHT22;15510;52.512;13.300;2023-05-17T08:20:58;12.60;99.90
28244;DHT22;15510;52.512;13.300;2023-05-17T08:23:24;12.60;99.90
28244;DHT22;15510;52.512;13.300;2023-05-17T08:25:50;12.70;99.90
28244;DHT22;15510;52.512;13.300;2023-05-17T08:28:17;12.80;99.90
28244;DHT22;15510;52.512;13.300;2023-05-17T08:30:42;12.80;99.90
28244;DHT22;15510;52.512;13.300;2023-05-17T08:33:11;12.90;99.90
28244;DHT22;15510;52.512;13.300;2023-05-17T08:35:37;12.80;99.90
28244;DHT22;15510;52.512;13.300;2023-05-17T08:38:02;12.90;99.90
28244;DHT22;15510;52.512;13.300;2023-05-17T08:40:28;12.90;99.90
28244;DHT22;15510;52.512;13.300;2023-05-17T08:42:54;13.00;99.90
28244;DHT22;15510;52.512;13.300;2023-05-17T08:45:20;12.90;99.90
28244;DHT22;15510;52.512;13.300;2023-05-17T08:47:46;13.00;99.90
28244;DHT22;15510;52.512;13.300;2023-05-17T08:50:13;13.00;99.90
28244;DHT22;15510;52.512;13.300;2023-05-17T08:52:40;13.00;99.90
28244;DHT22;15510;52.512;13.300;2023-05-17T08:55:09;13.10;99.90
28244;DHT22;15510;52.512;13.300;2023-05-17T08:57:41;13.10;99.90
28244;DHT22;15510;52.512;13.300;2023-05-17T09:00:08;13.10;99.90
28244;DHT22;15510;52.512;13.300;2023-05-17T09:02:38;13.10;99.90
28244;DHT22;15510;52.512;13.300;2023-05-17T09:05:07;13.10;99.90
28244;DHT22;15510;52.512;13.300;2023-05-17T09:07:35;13.20;99.90
28244;DHT22;15510;52.512;13.300;2023-05-17T09:10:01;13.30;99.90
28244;DHT22;15510;52.512;13.300;2023-05-17T09:12:34;13.40;99.90
28244;DHT22;15510;52.512;13.300;2023-05-17T09:15:16;13.50;99.90
28244;DHT22;15510;52.512;13.300;2023-05-17T09:17:47;13.50;99.90
28244;DHT22;15510;52.512;13.300;2023-05-17T09:20:22;13.50;99.90
28244;DHT22;15510;52.512;13.300;2023-05-17T09:22:51;13.50;99.90
28244;DHT22;15510;52.512;13.300;2023-05-17T09:25:22;13.50;99.90
28244;DHT22;15510;52.512;13.300;2023-05-17T09:27:51;13.50;99.90
28244;DHT22;15510;52.512;13.300;2023-05-17T09:30:28;13.50;99.90
28244;DHT22;15510;52.512;13.300;2023-05-17T09:33:12;13.40;99.90
28244;DHT22;15510;52.512;13.300;2023-05-17T09:35:38;13.40;99.90
28244;DHT22;15510;52.512;13.300;2023-05-17T09:38:06;13.50;99.90
28244;DHT22;15510;52.512;13.300;2023-05-17T09:40:45;13.50;99.90
28244;DHT22;15510;52.512;13.300;2023-05-17T09:43:13;13.60;99.90
28244;DHT22;15510;52.512;13.300;2023-05-17T09:45:39;13.60;99.90
28244;DHT22;15510;52.512;13.300;2023-05-17T09:48:12;13.60;99.90
28244;DHT22;15510;52.512;13.300;2023-05-17T09:50:46;13.60;99.90
28244;DHT22;15510;52.512;13.300;2023-05-17T09:53:32;13.50;99.90
28244;DHT22;15510;52.512;13.300;2023-05-17T09:56:06;13.60;99.90
28244;DHT22;15510;52.512;13.300;2023-05-17T09:58:41;13.70;99.90
28244;DHT22;15510;52.512;13.300;2023-05-17T10:01:10;13.90;99.90
28244;DHT22;15510;52.512;13.300;2023-05-17T10:03:37;13.90;99.90
28244;DHT22;15510;52.512;13.300;2023-05-17T10:06:07;14.00;99.20
28244;DHT22;15510;52.512;13.300;2023-05-17T10:08:36;14.00;98.80
28244;DHT22;15510;52.512;13.300;2023-05-17T10:11:07;14.10;99.10
28244;DHT22;15510;52.512;13.300;2023-05-17T10:13:43;14.20;98.30
28244;DHT22;15510;52.512;13.300;2023-05-17T10:16:12;14.20;98.60
28244;DHT22;15510;52.512;13.300;2023-05-17T10:18:38;14.30;99.10
28244;DHT22;15510;52.512;13.300;2023-05-17T10:21:08;14.40;99.30
28244;DHT22;15510;52.512;13.300;2023-05-17T10:23:36;14.50;98.30
28244;DHT22;15510;52.512;13.300;2023-05-17T10:26:04;14.60;98.50
28244;DHT22;15510;52.512;13.300;2023-05-17T10:28:32;14.70;98.10
28244;DHT22;15510;52.512;13.300;2023-05-17T10:30:58;14.90;97.90
28244;DHT22;15510;52.512;13.300;2023-05-17T10:33:26;15.00;97.60
28244;DHT22;15510;52.512;13.300;2023-05-17T10:35:53;15.00;97.40
28244;DHT22;15510;52.512;13.300;2023-05-17T10:38:20;15.10;96.80
28244;DHT22;15510;52.512;13.300;2023-05-17T10:40:48;15.10;96.60
28244;DHT22;15510;52.512;13.300;2023-05-17T10:43:16;15.10;97.00
28244;DHT22;15510;52.512;13.300;2023-05-17T10:45:42;15.20;96.40
28244;DHT22;15510;52.512;13.300;2023-05-17T10:48:08;15.40;96.60
28244;DHT22;15510;52.512;13.300;2023-05-17T10:50:37;15.50;95.20
28244;DHT22;15510;52.512;13.300;2023-05-17T10:53:09;15.60;95.20
28244;DHT22;15510;52.512;13.300;2023-05-17T10:55:40;15.90;94.80
28244;DHT22;15510;52.512;13.300;2023-05-17T10:58:26;16.40;94.00
28244;DHT22;15510;52.512;13.300;2023-05-17T11:00:53;17.00;92.80
28244;DHT22;15510;52.512;13.300;2023-05-17T11:03:19;17.40;92.40
28244;DHT22;15510;52.512;13.300;2023-05-17T11:06:16;17.90;91.00
28244;DHT22;15510;52.512;13.300;2023-05-17T11:11:32;19.00;89.40
28244;DHT22;15510;52.512;13.300;2023-05-17T11:14:02;19.60;85.80
28244;DHT22;15510;52.512;13.300;2023-05-17T11:16:36;20.10;83.40
28244;DHT22;15510;52.512;13.300;2023-05-17T11:19:10;20.50;79.90
28244;DHT22;15510;52.512;13.300;2023-05-17T11:21:44;20.80;77.70
28244;DHT22;15510;52.512;13.300;2023-05-17T11:24:18;20.80;74.20
28244;DHT22;15510;52.512;13.300;2023-05-17T11:26:49;21.10;72.70
28244;DHT22;15510;52.512;13.300;2023-05-17T11:29:16;20.90;70.70
28244;DHT22;15510;52.512;13.300;2023-05-17T11:31:43;21.40;71.20
28244;DHT22;15510;52.512;13.300;2023-05-17T11:34:10;22.10;68.50
28244;DHT22;15510;52.512;13.300;2023-05-17T11:36:50;22.50;65.40
28244;DHT22;15510;52.512;13.300;2023-05-17T11:39:19;22.50;64.20
28244;DHT22;15510;52.512;13.300;2023-05-17T11:41:53;22.30;65.20
28244;DHT22;15510;52.512;13.300;2023-05-17T11:44:29;22.50;64.30
28244;DHT22;15510;52.512;13.300;2023-05-17T11:47:07;22.80;63.40
28244;DHT22;15510;52.512;13.300;2023-05-17T11:49:36;23.30;59.70
28244;DHT22;15510;52.512;13.300;2023-05-17T11:52:06;23.30;59.10
28244;DHT22;15510;52.512;13.300;2023-05-17T11:54:33;23.50;58.90
28244;DHT22;15510;52.512;13.300;2023-05-17T11:56:59;23.90;56.40
28244;DHT22;15510;52.512;13.300;2023-05-17T11:59:27;24.20;54.50
28244;DHT22;15510;52.512;13.300;2023-05-17T12:01:52;23.70;53.90
28244;DHT22;15510;52.512;13.300;2023-05-17T12:04:23;24.10;53.10
28244;DHT22;15510;52.512;13.300;2023-05-17T12:06:54;24.60;53.40
28244;DHT22;15510;52.512;13.300;2023-05-17T12:09:21;24.80;52.10
28244;DHT22;15510;52.512;13.300;2023-05-17T12:11:47;25.20;52.00
28244;DHT22;15510;52.512;13.300;2023-05-17T12:14:16;25.50;50.30
28244;DHT22;15510;52.512;13.300;2023-05-17T12:16:43;26.10;48.10
28244;DHT22;15510;52.512;13.300;2023-05-17T12:19:21;25.90;47.60
28244;DHT22;15510;52.512;13.300;2023-05-17T12:21:48;25.40;47.50
28244;DHT22;15510;52.512;13.300;2023-05-17T12:24:14;25.60;47.40
28244;DHT22;15510;52.512;13.300;2023-05-17T12:26:46;26.20;46.70
28244;DHT22;15510;52.512;13.300;2023-05-17T12:29:13;26.10;45.40
28244;DHT22;15510;52.512;13.300;2023-05-17T12:31:48;26.00;45.80
28244;DHT22;15510;52.512;13.300;2023-05-17T12:34:15;26.00;46.30
28244;DHT22;15510;52.512;13.300;2023-05-17T12:36:42;26.70;44.40
28244;DHT22;15510;52.512;13.300;2023-05-17T12:39:11;27.20;43.70
28244;DHT22;15510;52.512;13.300;2023-05-17T12:41:38;27.10;43.20
28244;DHT22;15510;52.512;13.300;2023-05-17T12:44:08;26.80;43.60
28244;DHT22;15510;52.512;13.300;2023-05-17T12:46:34;27.10;42.90
28244;DHT22;15510;52.512;13.300;2023-05-17T12:49:04;26.90;42.30
28244;DHT22;15510;52.512;13.300;2023-05-17T12:51:40;27.00;42.50
28244;DHT22;15510;52.512;13.300;2023-05-17T12:54:07;26.80;42.00
28244;DHT22;15510;52.512;13.300;2023-05-17T12:56:33;26.60;42.20
28244;DHT22;15510;52.512;13.300;2023-05-17T12:59:14;26.70;41.90
28244;DHT22;15510;52.512;13.300;2023-05-17T13:01:48;26.90;41.30
28244;DHT22;15510;52.512;13.300;2023-05-17T13:04:15;27.40;41.20
28244;DHT22;15510;52.512;13.300;2023-05-17T13:06:52;27.60;40.70
28244;DHT22;15510;52.512;13.300;2023-05-17T13:09:20;27.40;41.20
28244;DHT22;15510;52.512;13.300;2023-05-17T13:11:55;27.70;41.30
28244;DHT22;15510;52.512;13.300;2023-05-17T13:17:10;27.60;41.00
28244;DHT22;15510;52.512;13.300;2023-05-17T13:19:37;28.10;40.50
28244;DHT22;15510;52.512;13.300;2023-05-17T13:22:04;27.40;41.10
28244;DHT22;15510;52.512;13.300;2023-05-17T13:24:33;26.90;41.80
28244;DHT22;15510;52.512;13.300;2023-05-17T13:26:59;26.30;42.00
28244;DHT22;15510;52.512;13.300;2023-05-17T13:29:24;25.90;43.00
28244;DHT22;15510;52.512;13.300;2023-05-17T13:31:51;26.30;42.90
28244;DHT22;15510;52.512;13.300;2023-05-17T13:34:17;27.00;42.60
28244;DHT22;15510;52.512;13.300;2023-05-17T13:36:46;27.90;41.80
28244;DHT22;15510;52.512;13.300;2023-05-17T13:39:11;27.50;41.00
28244;DHT22;15510;52.512;13.300;2023-05-17T13:41:38;26.50;41.90
28244;DHT22;15510;52.512;13.300;2023-05-17T13:44:04;25.10;43.90
28244;DHT22;15510;52.512;13.300;2023-05-17T13:46:29;24.80;44.40
28244;DHT22;15510;52.512;13.300;2023-05-17T13:48:55;24.00;45.40
28244;DHT22;15510;52.512;13.300;2023-05-17T13:51:21;23.20;46.30
28244;DHT22;15510;52.512;13.300;2023-05-17T13:53:47;23.30;46.80
28244;DHT22;15510;52.512;13.300;2023-05-17T13:56:13;24.60;45.40
28244;DHT22;15510;52.512;13.300;2023-05-17T13:58:39;25.80;44.50
28244;DHT22;15510;52.512;13.300;2023-05-17T14:01:04;27.10;42.80
28244;DHT22;15510;52.512;13.300;2023-05-17T14:03:31;27.40;42.00
28244;DHT22;15510;52.512;13.300;2023-05-17T14:05:58;27.90;40.90
28244;DHT22;15510;52.512;13.300;2023-05-17T14:08:23;27.70;40.60
28244;DHT22;15510;52.512;13.300;2023-05-17T14:10:49;28.00;40.10
28244;DHT22;15510;52.512;13.300;2023-05-17T14:13:15;28.40;39.10
28244;DHT22;15510;52.512;13.300;2023-05-17T14:15:41;29.20;38.10
28244;DHT22;15510;52.512;13.300;2023-05-17T14:18:08;29.90;37.30
28244;DHT22;15510;52.512;13.300;2023-05-17T14:20:34;30.20;36.80
28244;DHT22;15510;52.512;13.300;2023-05-17T14:22:59;30.50;36.00
28244;DHT22;15510;52.512;13.300;2023-05-17T14:25:26;30.00;36.20
28244;DHT22;15510;52.512;13.300;2023-05-17T14:27:52;30.20;36.00
28244;DHT22;15510;52.512;13.300;2023-05-17T14:30:18;31.20;35.30
28244;DHT22;15510;52.512;13.300;2023-05-17T14:32:44;31.10;34.50
28244;DHT22;15510;52.512;13.300;2023-05-17T14:35:11;31.20;35.20
28244;DHT22;15510;52.512;13.300;2023-05-17T14:37:36;30.70;35.10
28244;DHT22;15510;52.512;13.300;2023-05-17T14:40:03;30.50;35.10
28244;DHT22;15510;52.512;13.300;2023-05-17T14:42:29;30.30;34.90
28244;DHT22;15510;52.512;13.300;2023-05-17T14:44:56;29.40;34.90
28244;DHT22;15510;52.512;13.300;2023-05-17T14:47:21;27.50;36.70
28244;DHT22;15510;52.512;13.300;2023-05-17T14:49:47;24.90;39.60
28244;DHT22;15510;52.512;13.300;2023-05-17T14:52:13;23.20;42.00
28244;DHT22;15510;52.512;13.300;2023-05-17T14:54:40;22.10;43.80
28244;DHT22;15510;52.512;13.300;2023-05-17T14:57:06;21.40;45.20
28244;DHT22;15510;52.512;13.300;2023-05-17T14:59:34;20.80;46.50
28244;DHT22;15510;52.512;13.300;2023-05-17T15:02:00;20.40;47.90
28244;DHT22;15510;52.512;13.300;2023-05-17T15:04:26;20.10;48.80
28244;DHT22;15510;52.512;13.300;2023-05-17T15:06:51;20.00;49.00
28244;DHT22;15510;52.512;13.300;2023-05-17T15:09:18;19.90;50.90
28244;DHT22;15510;52.512;13.300;2023-05-17T15:11:44;19.70;49.40
28244;DHT22;15510;52.512;13.300;2023-05-17T15:14:11;19.50;49.10
28244;DHT22;15510;52.512;13.300;2023-05-17T15:16:36;19.40;49.00
28244;DHT22;15510;52.512;13.300;2023-05-17T15:19:03;19.30;49.30
28244;DHT22;15510;52.512;13.300;2023-05-17T15:21:28;19.10;50.40
28244;DHT22;15510;52.512;13.300;2023-05-17T15:23:54;18.80;50.30
28244;DHT22;15510;52.512;13.300;2023-05-17T15:26:20;18.70;50.60
28244;DHT22;15510;52.512;13.300;2023-05-17T15:28:47;18.70;50.50
28244;DHT22;15510;52.512;13.300;2023-05-17T15:31:15;18.70;51.50
28244;DHT22;15510;52.512;13.300;2023-05-17T15:33:43;18.70;52.00
28244;DHT22;15510;52.512;13.300;2023-05-17T15:36:10;18.60;52.50
28244;DHT22;15510;52.512;13.300;2023-05-17T15:38:37;18.60;52.40
28244;DHT22;15510;52.512;13.300;2023-05-17T15:41:04;18.50;51.40
28244;DHT22;15510;52.512;13.300;2023-05-17T15:43:32;18.30;51.70
28244;DHT22;15510;52.512;13.300;2023-05-17T15:45:59;18.20;52.70
28244;DHT22;15510;52.512;13.300;2023-05-17T15:48:25;18.00;52.80
28244;DHT22;15510;52.512;13.300;2023-05-17T15:50:59;18.00;52.60